Wetterdaten: Woche 13.05.13 - 19.05.13 (KW20)
Datum Zeit Temp. A. Feuchte A. Luftdruck Regen Wind Richtung Taupunkt Windchill Windben
13.05.2013 00:00 4,9 C 93 % 1015,8 hPa 0,0 l/m 0,2 km/h (0 Bft) SW 3,9 C 4,9 C 0,8 km/h (0 Bft)
13.05.2013 01:00 5,4 C 93 % 1015,7 hPa 0,0 l/m 1,1 km/h (0 Bft) S-SO 4,3 C 5,4 C 3,9 km/h (1 Bft)
13.05.2013 02:00 4,9 C 93 % 1015,3 hPa 0,0 l/m 0,2 km/h (0 Bft) N 3,8 C 4,9 C 1,3 km/h (1 Bft)
13.05.2013 03:00 4,7 C 94 % 1015,2 hPa 0,0 l/m 0,3 km/h (0 Bft) N 3,7 C 4,7 C 1,5 km/h (1 Bft)
13.05.2013 04:00 4,2 C 94 % 1014,9 hPa 0,0 l/m 0,1 km/h (0 Bft) N 3,3 C 4,2 C 0,4 km/h (0 Bft)
13.05.2013 05:00 3,6 C 94 % 1014,6 hPa 0,0 l/m 0,2 km/h (0 Bft) O-SO 2,8 C 3,6 C 0,5 km/h (0 Bft)
13.05.2013 06:00 5,3 C 95 % 1014,3 hPa 0,2 l/m 1,7 km/h (1 Bft) S 4,5 C 5,3 C 4,8 km/h (1 Bft)
13.05.2013 07:00 7,5 C 91 % 1014,0 hPa 0,0 l/m 5,0 km/h (1 Bft) S-SW 6,1 C 7,5 C 10,6 km/h (2 Bft)
13.05.2013 08:00 9,3 C 86 % 1013,5 hPa 0,0 l/m 5,9 km/h (2 Bft) SW 7,1 C 9,2 C 13,0 km/h (3 Bft)
13.05.2013 09:00 11,1 C 77 % 1013,1 hPa 0,0 l/m 9,7 km/h (2 Bft) S 7,3 C 9,0 C 19,6 km/h (3 Bft)
13.05.2013 10:00 11,0 C 78 % 1013,0 hPa 0,0 l/m 8,7 km/h (2 Bft) S-SW 7,4 C 9,5 C 18,4 km/h (3 Bft)
13.05.2013 11:00 10,9 C 82 % 1012,8 hPa 0,0 l/m 9,0 km/h (2 Bft) S-SW 7,9 C 9,2 C 18,0 km/h (3 Bft)
13.05.2013 12:00 10,6 C 85 % 1012,6 hPa 0,0 l/m 7,7 km/h (2 Bft) S-SW 8,1 C 9,6 C 16,2 km/h (3 Bft)
13.05.2013 13:00 10,9 C 85 % 1012,3 hPa 0,0 l/m 7,0 km/h (2 Bft) S 8,4 C 10,4 C 14,0 km/h (3 Bft)
13.05.2013 14:00 11,2 C 86 % 1011,9 hPa 0,0 l/m 6,8 km/h (2 Bft) SW 9,0 C 10,5 C 13,4 km/h (3 Bft)
13.05.2013 15:00 11,7 C 87 % 1011,5 hPa 0,0 l/m 6,1 km/h (2 Bft) S-SW 9,5 C 11,4 C 12,9 km/h (3 Bft)
13.05.2013 16:00 12,8 C 85 % 1011,1 hPa 0,4 l/m 6,6 km/h (2 Bft) SW 10,3 C 12,5 C 15,2 km/h (3 Bft)
13.05.2013 17:00 12,4 C 91 % 1010,9 hPa 0,4 l/m 5,8 km/h (2 Bft) S-SW 10,9 C 12,2 C 11,8 km/h (2 Bft)
13.05.2013 18:00 12,8 C 90 % 1010,5 hPa 0,0 l/m 2,2 km/h (1 Bft) S 11,3 C 12,8 C 7,1 km/h (2 Bft)
13.05.2013 19:00 12,5 C 90 % 1010,3 hPa 0,6 l/m 1,7 km/h (1 Bft) W-NW 11,0 C 12,5 C 6,3 km/h (2 Bft)
13.05.2013 20:00 11,5 C 92 % 1010,6 hPa 0,0 l/m 1,1 km/h (1 Bft) W-NW 10,2 C 11,5 C 2,7 km/h (1 Bft)
13.05.2013 21:00 10,7 C 93 % 1010,7 hPa 0,0 l/m 0,0 km/h (0 Bft) N 9,6 C 10,7 C 0,0 km/h (0 Bft)
13.05.2013 22:00 10,4 C 93 % 1010,9 hPa 1,6 l/m 4,4 km/h (1 Bft) SW 9,2 C 10,2 C 10,1 km/h (2 Bft)
13.05.2013 23:00 9,5 C 92 % 1010,6 hPa 0,2 l/m 2,6 km/h (1 Bft) S-SW 8,2 C 9,5 C 5,6 km/h (2 Bft)
14.05.2013 00:00 8,8 C 93 % 1010,0 hPa 0,0 l/m 1,2 km/h (1 Bft) S-SW 7,8 C 8,8 C 4,1 km/h (1 Bft)
14.05.2013 01:00 8,2 C 95 % 1009,8 hPa 0,0 l/m 1,2 km/h (1 Bft) S-SW 7,5 C 8,2 C 4,1 km/h (1 Bft)
14.05.2013 02:00 8,0 C 95 % 1009,3 hPa 0,2 l/m 1,2 km/h (1 Bft) S 7,2 C 8,0 C 3,9 km/h (1 Bft)
14.05.2013 03:00 8,1 C 95 % 1009,2 hPa 0,2 l/m 1,6 km/h (1 Bft) S-SW 7,3 C 8,1 C 4,3 km/h (1 Bft)
14.05.2013 04:00 8,2 C 91 % 1009,1 hPa 0,0 l/m 2,9 km/h (1 Bft) SW 6,8 C 8,2 C 7,9 km/h (2 Bft)
14.05.2013 05:00 7,2 C 91 % 1009,2 hPa 0,0 l/m 0,4 km/h (0 Bft) S-SW 5,8 C 7,2 C 2,5 km/h (1 Bft)
14.05.2013 06:00 7,4 C 89 % 1009,4 hPa 0,0 l/m 0,9 km/h (0 Bft) W 5,7 C 7,4 C 3,7 km/h (1 Bft)
14.05.2013 07:00 9,1 C 82 % 1009,9 hPa 0,0 l/m 4,2 km/h (1 Bft) SW 6,1 C 9,1 C 12,1 km/h (2 Bft)
14.05.2013 08:00 10,6 C 75 % 1010,2 hPa 0,0 l/m 6,6 km/h (2 Bft) SW 6,3 C 10,3 C 17,6 km/h (3 Bft)
14.05.2013 09:00 11,4 C 71 % 1010,6 hPa 0,0 l/m 6,0 km/h (2 Bft) W 6,4 C 11,2 C 15,3 km/h (3 Bft)
14.05.2013 10:00 12,6 C 66 % 1010,6 hPa 0,0 l/m 6,9 km/h (2 Bft) SW 6,3 C 12,1 C 16,9 km/h (3 Bft)
14.05.2013 11:00 13,7 C 62 % 1010,6 hPa 0,0 l/m 7,0 km/h (2 Bft) S-SW 6,5 C 13,1 C 15,7 km/h (3 Bft)
14.05.2013 12:00 14,2 C 62 % 1010,6 hPa 0,0 l/m 6,6 km/h (2 Bft) S-SW 6,9 C 13,9 C 14,9 km/h (3 Bft)
14.05.2013 13:00 14,6 C 58 % 1010,4 hPa 0,0 l/m 5,4 km/h (2 Bft) SW 6,5 C 14,6 C 12,5 km/h (2 Bft)
14.05.2013 14:00 15,1 C 55 % 1010,0 hPa 0,0 l/m 6,9 km/h (2 Bft) S-SW 6,0 C 14,5 C 16,1 km/h (3 Bft)
14.05.2013 15:00 15,3 C 54 % 1009,9 hPa 0,0 l/m 5,9 km/h (2 Bft) S-SW 5,9 C 15,1 C 13,7 km/h (3 Bft)
14.05.2013 16:00 14,5 C 57 % 1009,9 hPa 0,0 l/m 5,3 km/h (1 Bft) SW 6,1 C 14,5 C 12,0 km/h (2 Bft)
14.05.2013 17:00 14,2 C 61 % 1009,5 hPa 0,0 l/m 4,5 km/h (1 Bft) S-SO 6,8 C 14,2 C 9,3 km/h (2 Bft)
14.05.2013 18:00 13,3 C 69 % 1009,4 hPa 0,0 l/m 2,9 km/h (1 Bft) SO 7,7 C 13,3 C 6,1 km/h (2 Bft)
14.05.2013 19:00 12,3 C 78 % 1009,2 hPa 0,0 l/m 0,8 km/h (0 Bft) SO 8,5 C 12,3 C 2,8 km/h (1 Bft)
14.05.2013 20:00 11,5 C 84 % 1008,9 hPa 0,0 l/m 0,6 km/h (0 Bft) O-SO 8,9 C 11,5 C 2,4 km/h (1 Bft)
14.05.2013 21:00 11,0 C 87 % 1008,5 hPa 0,0 l/m 0,8 km/h (0 Bft) O-SO 9,0 C 11,0 C 3,2 km/h (1 Bft)
14.05.2013 22:00 10,8 C 89 % 1008,3 hPa 0,0 l/m 0,0 km/h (0 Bft) N 9,0 C 10,8 C 0,0 km/h (0 Bft)
14.05.2013 23:00 10,2 C 92 % 1007,6 hPa 0,0 l/m 0,0 km/h (0 Bft) N 8,9 C 10,2 C 0,4 km/h (0 Bft)
15.05.2013 00:00 10,4 C 90 % 1007,0 hPa 0,0 l/m 0,1 km/h (0 Bft) N 8,8 C 10,4 C 0,7 km/h (0 Bft)
15.05.2013 01:00 9,5 C 91 % 1006,4 hPa 0,0 l/m 1,0 km/h (0 Bft) SO 8,1 C 9,5 C 3,6 km/h (1 Bft)
15.05.2013 02:00 9,6 C 90 % 1005,7 hPa 0,0 l/m 2,8 km/h (1 Bft) O-SO 8,1 C 9,6 C 7,9 km/h (2 Bft)
15.05.2013 03:00 9,1 C 91 % 1005,0 hPa 0,0 l/m 2,8 km/h (1 Bft) SO 7,7 C 9,1 C 8,9 km/h (2 Bft)
15.05.2013 04:00 9,0 C 91 % 1004,1 hPa 0,0 l/m 3,8 km/h (1 Bft) SO 7,6 C 8,9 C 10,3 km/h (2 Bft)
15.05.2013 05:00 9,4 C 89 % 1003,7 hPa 0,0 l/m 2,9 km/h (1 Bft) S-SO 7,7 C 9,4 C 8,0 km/h (2 Bft)
15.05.2013 06:00 10,5 C 85 % 1003,6 hPa 0,0 l/m 2,2 km/h (1 Bft) O-SO 8,1 C 10,5 C 7,6 km/h (2 Bft)
15.05.2013 07:00 12,4 C 80 % 1003,7 hPa 0,0 l/m 3,0 km/h (1 Bft) S 9,1 C 12,4 C 9,0 km/h (2 Bft)
15.05.2013 08:00 13,7 C 78 % 1003,6 hPa 0,0 l/m 3,3 km/h (1 Bft) SO 9,9 C 13,7 C 8,2 km/h (2 Bft)
15.05.2013 09:00 15,6 C 75 % 1003,2 hPa 0,0 l/m 5,0 km/h (1 Bft) SO 11,2 C 15,5 C 12,0 km/h (2 Bft)
15.05.2013 10:00 17,7 C 69 % 1002,8 hPa 0,0 l/m 5,8 km/h (2 Bft) SO 11,9 C 17,6 C 13,3 km/h (3 Bft)
15.05.2013 11:00 20,3 C 60 % 1002,4 hPa 0,0 l/m 6,7 km/h (2 Bft) S-SO 12,1 C 20,0 C 14,4 km/h (3 Bft)
15.05.2013 12:00 22,9 C 47 % 1001,7 hPa 0,0 l/m 8,0 km/h (2 Bft) S 10,8 C 22,3 C 17,7 km/h (3 Bft)
15.05.2013 13:00 23,7 C 43 % 1001,2 hPa 0,0 l/m 8,0 km/h (2 Bft) S-SO 10,3 C 23,1 C 18,0 km/h (3 Bft)
15.05.2013 14:00 24,5 C 42 % 1000,6 hPa 0,0 l/m 9,3 km/h (2 Bft) S 10,7 C 23,8 C 21,3 km/h (4 Bft)
15.05.2013 15:00 24,5 C 46 % 1000,3 hPa 0,0 l/m 10,1 km/h (2 Bft) SO 12,2 C 23,6 C 22,4 km/h (4 Bft)
15.05.2013 16:00 24,5 C 47 % 999,8 hPa 0,0 l/m 8,1 km/h (2 Bft) SO 12,5 C 24,1 C 17,6 km/h (3 Bft)
15.05.2013 17:00 23,0 C 49 % 999,6 hPa 0,0 l/m 4,9 km/h (1 Bft) S-SO 11,7 C 23,0 C 12,1 km/h (2 Bft)
15.05.2013 18:00 18,9 C 68 % 1000,2 hPa 0,0 l/m 3,4 km/h (1 Bft) W 12,8 C 18,9 C 9,2 km/h (2 Bft)
15.05.2013 19:00 16,3 C 78 % 1000,5 hPa 1,4 l/m 4,0 km/h (1 Bft) S 12,5 C 16,2 C 10,7 km/h (2 Bft)
15.05.2013 20:00 14,8 C 86 % 1000,3 hPa 0,0 l/m 0,1 km/h (0 Bft) S 12,6 C 14,8 C 0,5 km/h (0 Bft)
15.05.2013 21:00 15,1 C 87 % 1001,6 hPa 0,2 l/m 5,0 km/h (1 Bft) S-SW 12,9 C 14,4 C 10,7 km/h (2 Bft)
15.05.2013 22:00 14,7 C 86 % 1002,0 hPa 0,2 l/m 0,8 km/h (0 Bft) W-NW 12,4 C 14,7 C 2,8 km/h (1 Bft)
15.05.2013 23:00 12,9 C 90 % 1001,8 hPa 0,0 l/m 0,2 km/h (0 Bft) N 11,3 C 12,9 C 1,1 km/h (0 Bft)
16.05.2013 00:00 12,1 C 94 % 1002,3 hPa 0,0 l/m 0,6 km/h (0 Bft) O-NO 11,1 C 12,1 C 2,1 km/h (1 Bft)
16.05.2013 01:00 11,6 C 94 % 1002,6 hPa 0,0 l/m 0,0 km/h (0 Bft) N 10,7 C 11,6 C 0,3 km/h (0 Bft)
16.05.2013 02:00 11,5 C 95 % 1002,7 hPa 0,0 l/m 0,0 km/h (0 Bft) N 10,7 C 11,5 C 0,0 km/h (0 Bft)
16.05.2013 03:00 11,4 C 95 % 1002,5 hPa 0,2 l/m 0,2 km/h (0 Bft) N-NO 10,7 C 11,4 C 0,7 km/h (0 Bft)
16.05.2013 04:00 11,8 C 96 % 1002,0 hPa 0,0 l/m 1,9 km/h (1 Bft) N-NO 11,2 C 11,8 C 3,5 km/h (1 Bft)
16.05.2013 05:00 11,3 C 96 % 1002,1 hPa 0,0 l/m 0,0 km/h (0 Bft) N 10,7 C 11,3 C 0,0 km/h (0 Bft)
16.05.2013 06:00 11,2 C 96 % 1002,1 hPa 0,0 l/m 1,3 km/h (1 Bft) N-NW 10,7 C 11,2 C 2,3 km/h (1 Bft)
16.05.2013 07:00 12,2 C 96 % 1002,0 hPa 0,2 l/m 2,6 km/h (1 Bft) N-NO 11,6 C 12,2 C 5,5 km/h (2 Bft)
16.05.2013 08:00 12,9 C 96 % 1001,7 hPa 0,0 l/m 5,5 km/h (2 Bft) NO 12,3 C 12,9 C 10,1 km/h (2 Bft)
16.05.2013 09:00 13,9 C 94 % 1001,1 hPa 0,0 l/m 6,4 km/h (2 Bft) NO 12,9 C 13,7 C 12,1 km/h (2 Bft)
16.05.2013 10:00 16,5 C 88 % 1000,6 hPa 0,0 l/m 6,4 km/h (2 Bft) NO 14,5 C 16,1 C 12,5 km/h (2 Bft)
16.05.2013 11:00 19,4 C 79 % 1000,1 hPa 0,0 l/m 5,9 km/h (2 Bft) NO 15,7 C 19,3 C 12,4 km/h (2 Bft)
16.05.2013 12:00 20,6 C 76 % 999,1 hPa 0,0 l/m 7,2 km/h (2 Bft) NO 16,1 C 20,2 C 14,6 km/h (3 Bft)
16.05.2013 13:00 21,1 C 74 % 998,3 hPa 0,0 l/m 7,5 km/h (2 Bft) O 16,3 C 20,6 C 13,7 km/h (3 Bft)
16.05.2013 14:00 22,2 C 68 % 997,8 hPa 0,0 l/m 7,8 km/h (2 Bft) NO 16,1 C 21,7 C 16,6 km/h (3 Bft)
16.05.2013 15:00 22,5 C 68 % 997,2 hPa 0,0 l/m 7,9 km/h (2 Bft) O-NO 16,3 C 21,9 C 16,0 km/h (3 Bft)
16.05.2013 16:00 23,3 C 65 % 996,3 hPa 0,0 l/m 5,8 km/h (2 Bft) SO 16,3 C 23,3 C 12,1 km/h (2 Bft)
16.05.2013 17:00 23,8 C 58 % 995,8 hPa 0,0 l/m 5,1 km/h (1 Bft) O 15,0 C 23,7 C 11,6 km/h (2 Bft)
16.05.2013 18:00 23,9 C 54 % 995,7 hPa 0,0 l/m 4,7 km/h (1 Bft) SO 14,1 C 23,9 C 10,6 km/h (2 Bft)
16.05.2013 19:00 22,9 C 54 % 995,7 hPa 0,0 l/m 4,4 km/h (1 Bft) S-SO 13,1 C 22,9 C 12,1 km/h (2 Bft)
16.05.2013 20:00 21,3 C 59 % 995,7 hPa 0,0 l/m 1,5 km/h (1 Bft) S-SW 13,1 C 21,3 C 5,0 km/h (1 Bft)
16.05.2013 21:00 18,5 C 71 % 995,9 hPa 0,0 l/m 0,0 km/h (0 Bft) N 13,2 C 18,5 C 0,0 km/h (0 Bft)
16.05.2013 22:00 17,0 C 78 % 995,8 hPa 0,0 l/m 0,0 km/h (0 Bft) N 13,2 C 17,0 C 0,0 km/h (0 Bft)
16.05.2013 23:00 18,2 C 72 % 995,9 hPa 0,0 l/m 1,6 km/h (1 Bft) O 13,0 C 18,2 C 4,4 km/h (1 Bft)
17.05.2013 00:00 18,6 C 69 % 996,2 hPa 0,0 l/m 1,5 km/h (1 Bft) SO 12,9 C 18,6 C 4,9 km/h (1 Bft)
17.05.2013 01:00 17,9 C 73 % 996,3 hPa 0,0 l/m 0,4 km/h (0 Bft) O 12,9 C 17,9 C 1,9 km/h (1 Bft)
17.05.2013 02:00 15,8 C 80 % 996,7 hPa 0,0 l/m 0,1 km/h (0 Bft) O-NO 12,3 C 15,8 C 0,5 km/h (0 Bft)
17.05.2013 03:00 13,0 C 88 % 996,9 hPa 0,0 l/m 0,0 km/h (0 Bft) N 11,1 C 13,0 C 0,0 km/h (0 Bft)
17.05.2013 04:00 11,7 C 92 % 996,9 hPa 0,0 l/m 0,0 km/h (0 Bft) N 10,4 C 11,7 C 0,0 km/h (0 Bft)
17.05.2013 05:00 11,7 C 93 % 997,0 hPa 0,0 l/m 0,0 km/h (0 Bft) N 10,5 C 11,7 C 0,0 km/h (0 Bft)
17.05.2013 06:00 12,1 C 93 % 997,3 hPa 0,0 l/m 0,0 km/h (0 Bft) N 10,9 C 12,1 C 0,0 km/h (0 Bft)
17.05.2013 07:00 16,6 C 85 % 997,6 hPa 0,0 l/m 0,1 km/h (0 Bft) N 13,9 C 16,6 C 0,5 km/h (0 Bft)
17.05.2013 08:00 19,0 C 73 % 998,0 hPa 0,0 l/m 2,2 km/h (1 Bft) O 14,1 C 19,0 C 4,7 km/h (1 Bft)
17.05.2013 09:00 20,4 C 68 % 998,2 hPa 0,0 l/m 2,1 km/h (1 Bft) O-NO 14,3 C 20,4 C 6,0 km/h (2 Bft)
17.05.2013 10:00 21,8 C 66 % 998,3 hPa 0,0 l/m 1,1 km/h (1 Bft) N-NO 15,1 C 21,8 C 2,8 km/h (1 Bft)
17.05.2013 11:00 22,8 C 62 % 998,3 hPa 0,0 l/m 4,2 km/h (1 Bft) O-NO 15,0 C 22,8 C 8,2 km/h (2 Bft)
17.05.2013 12:00 23,2 C 62 % 998,3 hPa 0,0 l/m 4,7 km/h (1 Bft) N-NO 15,4 C 23,2 C 10,5 km/h (2 Bft)
17.05.2013 13:00 23,8 C 64 % 998,3 hPa 0,0 l/m 4,5 km/h (1 Bft) NO 16,5 C 23,8 C 9,7 km/h (2 Bft)
17.05.2013 14:00 23,8 C 62 % 998,4 hPa 0,0 l/m 5,2 km/h (1 Bft) O-NO 16,1 C 23,7 C 12,1 km/h (2 Bft)
17.05.2013 15:00 24,2 C 60 % 998,5 hPa 0,0 l/m 4,2 km/h (1 Bft) O-NO 15,9 C 24,2 C 10,2 km/h (2 Bft)
17.05.2013 16:00 23,7 C 62 % 998,5 hPa 0,0 l/m 2,4 km/h (1 Bft) O-NO 16,0 C 23,7 C 7,1 km/h (2 Bft)
17.05.2013 17:00 23,5 C 63 % 998,6 hPa 0,0 l/m 3,8 km/h (1 Bft) S-SW 16,0 C 23,5 C 9,2 km/h (2 Bft)
17.05.2013 18:00 19,6 C 83 % 999,1 hPa 0,8 l/m 3,2 km/h (1 Bft) W 16,6 C 19,6 C 9,5 km/h (2 Bft)
17.05.2013 19:00 18,1 C 89 % 999,2 hPa 0,0 l/m 1,9 km/h (1 Bft) W 16,2 C 18,1 C 5,8 km/h (2 Bft)
17.05.2013 20:00 17,4 C 90 % 999,3 hPa 0,0 l/m 1,4 km/h (1 Bft) W-SW 15,7 C 17,4 C 4,5 km/h (1 Bft)
17.05.2013 21:00 16,3 C 91 % 999,9 hPa 0,0 l/m 0,4 km/h (0 Bft) NW 14,8 C 16,3 C 1,7 km/h (1 Bft)
17.05.2013 22:00 15,6 C 92 % 1000,4 hPa 0,0 l/m 1,9 km/h (1 Bft) SW 14,3 C 15,6 C 6,3 km/h (2 Bft)
17.05.2013 23:00 15,2 C 92 % 1000,8 hPa 0,0 l/m 2,7 km/h (1 Bft) W 14,0 C 15,2 C 8,0 km/h (2 Bft)
18.05.2013 00:00 14,7 C 94 % 1001,0 hPa 0,0 l/m 2,3 km/h (1 Bft) W 13,6 C 14,7 C 7,1 km/h (2 Bft)
18.05.2013 01:00 14,3 C 94 % 1001,5 hPa 0,0 l/m 3,2 km/h (1 Bft) W 13,3 C 14,3 C 9,4 km/h (2 Bft)
18.05.2013 02:00 13,7 C 95 % 1001,9 hPa 4,2 l/m 3,5 km/h (1 Bft) W 12,9 C 13,7 C 9,4 km/h (2 Bft)
18.05.2013 03:00 13,4 C 95 % 1001,5 hPa 0,6 l/m 2,1 km/h (1 Bft) W-NW 12,6 C 13,4 C 6,7 km/h (2 Bft)
18.05.2013 04:00 13,1 C 95 % 1001,5 hPa 0,2 l/m 2,3 km/h (1 Bft) W 12,3 C 13,1 C 6,8 km/h (2 Bft)
18.05.2013 05:00 12,6 C 95 % 1002,0 hPa 5,2 l/m 2,4 km/h (1 Bft) W 11,8 C 12,6 C 7,1 km/h (2 Bft)
18.05.2013 06:00 12,4 C 95 % 1002,8 hPa 0,4 l/m 1,8 km/h (1 Bft) W 11,6 C 12,4 C 6,0 km/h (2 Bft)
18.05.2013 07:00 11,7 C 95 % 1003,3 hPa 0,2 l/m 3,6 km/h (1 Bft) W 10,9 C 11,7 C 10,3 km/h (2 Bft)
18.05.2013 08:00 10,9 C 95 % 1004,3 hPa 1,2 l/m 4,4 km/h (1 Bft) W 10,1 C 10,9 C 10,6 km/h (2 Bft)
18.05.2013 09:00 10,5 C 95 % 1005,2 hPa 0,0 l/m 4,5 km/h (1 Bft) SW 9,7 C 10,5 C 11,7 km/h (2 Bft)
18.05.2013 10:00 10,7 C 94 % 1005,8 hPa 0,2 l/m 4,5 km/h (1 Bft) W-NW 9,8 C 10,7 C 12,4 km/h (2 Bft)
18.05.2013 11:00 10,7 C 93 % 1006,3 hPa 0,0 l/m 4,9 km/h (1 Bft) W 9,6 C 10,7 C 14,5 km/h (3 Bft)
18.05.2013 12:00 10,6 C 92 % 1006,9 hPa 0,6 l/m 4,5 km/h (1 Bft) W 9,4 C 10,6 C 11,2 km/h (2 Bft)
18.05.2013 13:00 10,2 C 94 % 1008,2 hPa 2,8 l/m 5,1 km/h (1 Bft) SW 9,3 C 10,2 C 13,6 km/h (3 Bft)
18.05.2013 14:00 10,1 C 95 % 1008,3 hPa 0,8 l/m 4,8 km/h (1 Bft) W-NW 9,3 C 10,0 C 12,6 km/h (3 Bft)
18.05.2013 15:00 10,2 C 95 % 1008,7 hPa 1,0 l/m 3,8 km/h (1 Bft) W-NW 9,5 C 10,2 C 11,6 km/h (2 Bft)
18.05.2013 16:00 10,2 C 95 % 1008,8 hPa 0,8 l/m 4,2 km/h (1 Bft) SW 9,5 C 10,2 C 12,1 km/h (2 Bft)
18.05.2013 17:00 10,4 C 95 % 1009,3 hPa 0,0 l/m 3,1 km/h (1 Bft) W-SW 9,6 C 10,4 C 9,2 km/h (2 Bft)
18.05.2013 18:00 10,1 C 95 % 1009,8 hPa 0,0 l/m 2,7 km/h (1 Bft) SW 9,4 C 10,1 C 8,7 km/h (2 Bft)
18.05.2013 19:00 10,1 C 95 % 1010,2 hPa 0,0 l/m 1,3 km/h (1 Bft) W-SW 9,4 C 10,1 C 4,7 km/h (1 Bft)
18.05.2013 20:00 10,1 C 95 % 1010,4 hPa 0,0 l/m 1,3 km/h (1 Bft) S-SW 9,4 C 10,1 C 5,1 km/h (1 Bft)
18.05.2013 21:00 9,9 C 95 % 1010,8 hPa 0,0 l/m 1,0 km/h (0 Bft) W-SW 9,2 C 9,9 C 3,9 km/h (1 Bft)
18.05.2013 22:00 9,7 C 95 % 1010,8 hPa 0,0 l/m 0,0 km/h (0 Bft) N 9,0 C 9,7 C 0,5 km/h (0 Bft)
18.05.2013 23:00 9,7 C 96 % 1010,8 hPa 0,0 l/m 0,1 km/h (0 Bft) N 9,1 C 9,7 C 0,8 km/h (0 Bft)
19.05.2013 00:00 8,6 C 96 % 1010,9 hPa 0,0 l/m 0,0 km/h (0 Bft) N 8,0 C 8,6 C 0,0 km/h (0 Bft)
19.05.2013 01:00 7,3 C 96 % 1010,9 hPa 0,0 l/m 0,0 km/h (0 Bft) N 6,7 C 7,3 C 0,0 km/h (0 Bft)
19.05.2013 02:00 7,8 C 97 % 1011,0 hPa 0,0 l/m 1,6 km/h (1 Bft) SW 7,3 C 7,8 C 4,0 km/h (1 Bft)
19.05.2013 03:00 7,7 C 97 % 1010,9 hPa 0,0 l/m 0,1 km/h (0 Bft) N 7,3 C 7,7 C 0,4 km/h (0 Bft)
19.05.2013 04:00 7,8 C 97 % 1010,8 hPa 0,0 l/m 0,0 km/h (0 Bft) N 7,4 C 7,8 C 0,0 km/h (0 Bft)
19.05.2013 05:00 7,8 C 97 % 1010,3 hPa 0,0 l/m 0,0 km/h (0 Bft) N 7,4 C 7,8 C 0,0 km/h (0 Bft)
19.05.2013 06:00 8,3 C 97 % 1010,4 hPa 0,0 l/m 0,0 km/h (0 Bft) N 7,9 C 8,3 C 0,0 km/h (0 Bft)
19.05.2013 07:00 9,1 C 97 % 1010,4 hPa 0,0 l/m 0,6 km/h (0 Bft) S-SW 8,6 C 9,1 C 1,7 km/h (1 Bft)
19.05.2013 08:00 9,5 C 97 % 1010,7 hPa 0,0 l/m 1,6 km/h (1 Bft) S-SW 9,1 C 9,5 C 4,2 km/h (1 Bft)
19.05.2013 09:00 10,2 C 96 % 1010,5 hPa 0,0 l/m 0,7 km/h (0 Bft) NW 9,6 C 10,2 C 2,8 km/h (1 Bft)
19.05.2013 10:00 11,2 C 95 % 1010,2 hPa 0,0 l/m 1,5 km/h (1 Bft) NW 10,3 C 11,2 C 4,1 km/h (1 Bft)
19.05.2013 11:00 13,0 C 90 % 1009,6 hPa 0,0 l/m 2,4 km/h (1 Bft) N-NO 11,4 C 13,0 C 6,0 km/h (2 Bft)
19.05.2013 12:00 15,1 C 82 % 1009,2 hPa 0,0 l/m 2,8 km/h (1 Bft) NW 12,1 C 15,1 C 6,0 km/h (2 Bft)
19.05.2013 13:00 16,0 C 80 % 1009,0 hPa 0,0 l/m 4,6 km/h (1 Bft) NO 12,6 C 15,9 C 9,9 km/h (2 Bft)
19.05.2013 14:00 16,1 C 81 % 1008,7 hPa 0,0 l/m 7,2 km/h (2 Bft) N-NO 12,8 C 15,5 C 13,3 km/h (3 Bft)
19.05.2013 15:00 16,6 C 79 % 1008,5 hPa 0,0 l/m 5,2 km/h (1 Bft) NO 12,9 C 16,5 C 10,3 km/h (2 Bft)
19.05.2013 16:00 17,3 C 76 % 1008,2 hPa 0,0 l/m 4,2 km/h (1 Bft) NO 13,1 C 17,3 C 7,9 km/h (2 Bft)
19.05.2013 17:00 17,6 C 76 % 1007,8 hPa 0,0 l/m 5,8 km/h (2 Bft) NO 13,3 C 17,5 C 10,7 km/h (2 Bft)
19.05.2013 18:00 16,3 C 81 % 1007,0 hPa 0,0 l/m 6,8 km/h (2 Bft) NO 13,1 C 15,8 C 12,9 km/h (3 Bft)
19.05.2013 19:00 15,6 C 83 % 1007,0 hPa 0,0 l/m 6,3 km/h (2 Bft) N-NO 12,7 C 15,4 C 10,5 km/h (2 Bft)
19.05.2013 20:00 13,7 C 88 % 1007,0 hPa 0,0 l/m 4,3 km/h (1 Bft) N-NO 11,7 C 13,7 C 7,2 km/h (2 Bft)
19.05.2013 21:00 11,9 C 92 % 1007,1 hPa 0,0 l/m 3,7 km/h (1 Bft) N-NO 10,6 C 11,9 C 6,5 km/h (2 Bft)
19.05.2013 22:00 10,5 C 94 % 1007,3 hPa 0,0 l/m 0,1 km/h (0 Bft) N 9,6 C 10,5 C 0,4 km/h (0 Bft)
19.05.2013 23:00 9,6 C 95 % 1006,7 hPa 0,0 l/m 1,8 km/h (1 Bft) N 8,9 C 9,6 C 3,3 km/h (1 Bft)
Min-Datum _ 13.05.13 15.05.13 16.05.13 - 13.05.13 - 13.05.13 13.05.13 13.05.13
_ Min-Zeit 05:35 14:10 17:50 - 00:00 - 05:35 05:35 00:00
Minimum _ 3,4 C 39 % 995,6 hPa - 0,0 km/h (0 Bft) - 2,5 C 3,4 C 0,0 km/h (0 Bft)
Max-Datum _ 15.05.13 16.05.13 13.05.13 18.05.13 15.05.13 - 16.05.13 15.05.13 15.05.13
_ Max-Zeit 15:05 06:40 00:00 05:10 21:45 - 16:05 16:45 15:05
Maximum _ 24,9 C 97 % 1015,9 hPa 5,2 l/m 13,0 km/h
S-SW (3 Bft)
- 17,9 C 24,8 C 27,4 km/h
S-SW (5 Bft)
Durchschnitt _ 13,6 C 83 % 1005,4 hPa #25,0 l/m 3,2 km/h (1 Bft) SW 10,4 C 13,5 C 7,7 km/h (2 Bft)